sensor_id;sensor_type;location;lat;lon;timestamp;temperature;humidity
14877;DHT22;22152;48.158;17.118;2023-04-24T00:00:55;15.90;74.90
14877;DHT22;22152;48.158;17.118;2023-04-24T00:03:26;15.90;74.00
14877;DHT22;22152;48.158;17.118;2023-04-24T00:05:54;15.90;72.80
14877;DHT22;22152;48.158;17.118;2023-04-24T00:08:20;15.80;72.60
14877;DHT22;22152;48.158;17.118;2023-04-24T00:10:46;15.80;72.30
14877;DHT22;22152;48.158;17.118;2023-04-24T00:13:12;15.80;71.40
14877;DHT22;22152;48.158;17.118;2023-04-24T00:15:38;15.80;70.50
14877;DHT22;22152;48.158;17.118;2023-04-24T00:18:04;15.90;69.90
14877;DHT22;22152;48.158;17.118;2023-04-24T00:20:30;15.80;68.80
14877;DHT22;22152;48.158;17.118;2023-04-24T00:22:58;15.90;68.50
14877;DHT22;22152;48.158;17.118;2023-04-24T00:25:23;15.90;67.80
14877;DHT22;22152;48.158;17.118;2023-04-24T00:27:49;15.90;67.40
14877;DHT22;22152;48.158;17.118;2023-04-24T00:30:15;15.90;67.50
14877;DHT22;22152;48.158;17.118;2023-04-24T00:32:41;15.90;67.00
14877;DHT22;22152;48.158;17.118;2023-04-24T00:35:07;15.90;66.10
14877;DHT22;22152;48.158;17.118;2023-04-24T00:37:33;15.90;65.80
14877;DHT22;22152;48.158;17.118;2023-04-24T00:39:59;15.90;66.00
14877;DHT22;22152;48.158;17.118;2023-04-24T00:42:25;16.00;65.40
14877;DHT22;22152;48.158;17.118;2023-04-24T00:44:52;16.00;65.60
14877;DHT22;22152;48.158;17.118;2023-04-24T00:47:19;15.90;65.30
14877;DHT22;22152;48.158;17.118;2023-04-24T00:49:45;15.90;65.20
14877;DHT22;22152;48.158;17.118;2023-04-24T00:52:11;15.80;65.10
14877;DHT22;22152;48.158;17.118;2023-04-24T00:54:37;15.80;65.10
14877;DHT22;22152;48.158;17.118;2023-04-24T00:57:04;15.80;65.20
14877;DHT22;22152;48.158;17.118;2023-04-24T00:59:30;15.80;65.80
14877;DHT22;22152;48.158;17.118;2023-04-24T01:01:57;15.80;64.90
14877;DHT22;22152;48.158;17.118;2023-04-24T01:04:24;15.70;64.70
14877;DHT22;22152;48.158;17.118;2023-04-24T01:06:51;15.80;65.00
14877;DHT22;22152;48.158;17.118;2023-04-24T01:09:18;15.80;64.90
14877;DHT22;22152;48.158;17.118;2023-04-24T01:11:44;15.80;65.00
14877;DHT22;22152;48.158;17.118;2023-04-24T01:14:11;15.80;65.30
14877;DHT22;22152;48.158;17.118;2023-04-24T01:16:37;15.70;65.60
14877;DHT22;22152;48.158;17.118;2023-04-24T01:19:05;15.70;65.10
14877;DHT22;22152;48.158;17.118;2023-04-24T01:21:34;15.70;65.80
14877;DHT22;22152;48.158;17.118;2023-04-24T01:24:03;15.70;65.10
14877;DHT22;22152;48.158;17.118;2023-04-24T01:26:30;15.70;65.00
14877;DHT22;22152;48.158;17.118;2023-04-24T01:28:57;15.70;64.40
14877;DHT22;22152;48.158;17.118;2023-04-24T01:31:23;15.70;64.20
14877;DHT22;22152;48.158;17.118;2023-04-24T01:33:50;15.70;64.30
14877;DHT22;22152;48.158;17.118;2023-04-24T01:36:17;15.70;64.40
14877;DHT22;22152;48.158;17.118;2023-04-24T01:38:43;15.70;64.50
14877;DHT22;22152;48.158;17.118;2023-04-24T01:41:10;15.70;64.60
14877;DHT22;22152;48.158;17.118;2023-04-24T01:43:35;15.70;65.00
14877;DHT22;22152;48.158;17.118;2023-04-24T01:46:01;15.70;64.90
14877;DHT22;22152;48.158;17.118;2023-04-24T01:48:28;15.70;65.00
14877;DHT22;22152;48.158;17.118;2023-04-24T01:50:54;15.70;64.50
14877;DHT22;22152;48.158;17.118;2023-04-24T01:53:20;15.70;64.70
14877;DHT22;22152;48.158;17.118;2023-04-24T01:55:46;15.70;65.00
14877;DHT22;22152;48.158;17.118;2023-04-24T01:58:12;15.60;64.70
14877;DHT22;22152;48.158;17.118;2023-04-24T02:00:38;15.60;64.70
14877;DHT22;22152;48.158;17.118;2023-04-24T02:03:04;15.60;64.80
14877;DHT22;22152;48.158;17.118;2023-04-24T02:05:30;15.60;65.60
14877;DHT22;22152;48.158;17.118;2023-04-24T02:07:56;15.60;65.10
14877;DHT22;22152;48.158;17.118;2023-04-24T02:10:22;15.60;64.50
14877;DHT22;22152;48.158;17.118;2023-04-24T02:12:47;15.60;64.40
14877;DHT22;22152;48.158;17.118;2023-04-24T02:15:14;15.60;64.90
14877;DHT22;22152;48.158;17.118;2023-04-24T02:17:40;15.60;65.20
14877;DHT22;22152;48.158;17.118;2023-04-24T02:20:07;15.60;65.90
14877;DHT22;22152;48.158;17.118;2023-04-24T02:22:33;15.60;66.20
14877;DHT22;22152;48.158;17.118;2023-04-24T02:25:01;15.50;66.20
14877;DHT22;22152;48.158;17.118;2023-04-24T02:27:27;15.50;66.40
14877;DHT22;22152;48.158;17.118;2023-04-24T02:29:53;15.40;67.00
14877;DHT22;22152;48.158;17.118;2023-04-24T02:32:18;15.40;66.70
14877;DHT22;22152;48.158;17.118;2023-04-24T02:34:44;15.40;66.50
14877;DHT22;22152;48.158;17.118;2023-04-24T02:37:11;15.40;66.80
14877;DHT22;22152;48.158;17.118;2023-04-24T02:39:37;15.40;66.80
14877;DHT22;22152;48.158;17.118;2023-04-24T02:42:03;15.30;66.60
14877;DHT22;22152;48.158;17.118;2023-04-24T02:44:30;15.40;68.10
14877;DHT22;22152;48.158;17.118;2023-04-24T02:46:56;15.40;67.70
14877;DHT22;22152;48.158;17.118;2023-04-24T02:49:22;15.40;67.50
14877;DHT22;22152;48.158;17.118;2023-04-24T02:51:48;15.40;67.40
14877;DHT22;22152;48.158;17.118;2023-04-24T02:54:14;15.40;68.00
14877;DHT22;22152;48.158;17.118;2023-04-24T02:56:40;15.30;67.80
14877;DHT22;22152;48.158;17.118;2023-04-24T02:59:07;15.30;68.30
14877;DHT22;22152;48.158;17.118;2023-04-24T03:01:33;15.30;68.10
14877;DHT22;22152;48.158;17.118;2023-04-24T03:03:59;15.30;67.90
14877;DHT22;22152;48.158;17.118;2023-04-24T03:06:25;15.30;67.70
14877;DHT22;22152;48.158;17.118;2023-04-24T03:08:52;15.20;67.60
14877;DHT22;22152;48.158;17.118;2023-04-24T03:11:18;15.20;67.90
14877;DHT22;22152;48.158;17.118;2023-04-24T03:13:44;15.20;68.10
14877;DHT22;22152;48.158;17.118;2023-04-24T03:16:10;15.20;68.00
14877;DHT22;22152;48.158;17.118;2023-04-24T03:18:36;15.30;68.20
14877;DHT22;22152;48.158;17.118;2023-04-24T03:21:03;15.30;68.30
14877;DHT22;22152;48.158;17.118;2023-04-24T03:23:30;15.30;69.20
14877;DHT22;22152;48.158;17.118;2023-04-24T03:25:56;15.30;69.60
14877;DHT22;22152;48.158;17.118;2023-04-24T03:28:22;15.30;70.10
14877;DHT22;22152;48.158;17.118;2023-04-24T03:30:54;15.40;70.80
14877;DHT22;22152;48.158;17.118;2023-04-24T03:33:21;15.40;71.40
14877;DHT22;22152;48.158;17.118;2023-04-24T03:35:58;15.50;72.80
14877;DHT22;22152;48.158;17.118;2023-04-24T03:38:25;15.40;72.90
14877;DHT22;22152;48.158;17.118;2023-04-24T03:40:57;15.30;73.90
14877;DHT22;22152;48.158;17.118;2023-04-24T03:43:46;15.20;73.90
14877;DHT22;22152;48.158;17.118;2023-04-24T03:46:13;15.10;73.50
14877;DHT22;22152;48.158;17.118;2023-04-24T03:48:43;15.10;74.60
14877;DHT22;22152;48.158;17.118;2023-04-24T03:51:10;15.10;74.50
14877;DHT22;22152;48.158;17.118;2023-04-24T03:53:38;15.10;74.70
14877;DHT22;22152;48.158;17.118;2023-04-24T03:56:04;15.10;74.90
14877;DHT22;22152;48.158;17.118;2023-04-24T03:58:32;15.10;74.80
14877;DHT22;22152;48.158;17.118;2023-04-24T04:00:57;15.00;74.50
14877;DHT22;22152;48.158;17.118;2023-04-24T04:03:41;14.90;75.40
14877;DHT22;22152;48.158;17.118;2023-04-24T04:06:07;14.80;76.00
14877;DHT22;22152;48.158;17.118;2023-04-24T04:08:33;14.80;76.30
14877;DHT22;22152;48.158;17.118;2023-04-24T04:10:59;14.70;76.40
14877;DHT22;22152;48.158;17.118;2023-04-24T04:13:25;14.70;76.70
14877;DHT22;22152;48.158;17.118;2023-04-24T04:15:51;14.60;76.80
14877;DHT22;22152;48.158;17.118;2023-04-24T04:18:17;14.50;77.10
14877;DHT22;22152;48.158;17.118;2023-04-24T04:20:42;14.50;77.70
14877;DHT22;22152;48.158;17.118;2023-04-24T04:23:10;14.40;77.90
14877;DHT22;22152;48.158;17.118;2023-04-24T04:25:55;14.40;78.70
14877;DHT22;22152;48.158;17.118;2023-04-24T04:28:26;14.30;79.10
14877;DHT22;22152;48.158;17.118;2023-04-24T04:30:53;14.20;79.80
14877;DHT22;22152;48.158;17.118;2023-04-24T04:33:24;14.20;79.60
14877;DHT22;22152;48.158;17.118;2023-04-24T04:35:52;14.20;79.80
14877;DHT22;22152;48.158;17.118;2023-04-24T04:38:18;14.20;80.00
14877;DHT22;22152;48.158;17.118;2023-04-24T04:40:51;14.20;79.90
14877;DHT22;22152;48.158;17.118;2023-04-24T04:43:19;14.30;80.00
14877;DHT22;22152;48.158;17.118;2023-04-24T04:45:51;14.50;80.10
14877;DHT22;22152;48.158;17.118;2023-04-24T04:48:37;14.60;80.20
14877;DHT22;22152;48.158;17.118;2023-04-24T04:51:05;14.70;79.80
14877;DHT22;22152;48.158;17.118;2023-04-24T04:53:31;14.90;79.70
14877;DHT22;22152;48.158;17.118;2023-04-24T04:55:57;15.00;79.30
14877;DHT22;22152;48.158;17.118;2023-04-24T04:58:33;15.10;79.10
14877;DHT22;22152;48.158;17.118;2023-04-24T05:01:00;15.20;79.20
14877;DHT22;22152;48.158;17.118;2023-04-24T05:03:31;15.30;79.50
14877;DHT22;22152;48.158;17.118;2023-04-24T05:06:02;15.40;78.60
14877;DHT22;22152;48.158;17.118;2023-04-24T05:08:32;15.50;78.80
14877;DHT22;22152;48.158;17.118;2023-04-24T05:10:58;15.50;78.00
14877;DHT22;22152;48.158;17.118;2023-04-24T05:13:27;15.60;78.00
14877;DHT22;22152;48.158;17.118;2023-04-24T05:15:52;15.80;78.40
14877;DHT22;22152;48.158;17.118;2023-04-24T05:18:19;15.90;77.30
14877;DHT22;22152;48.158;17.118;2023-04-24T05:20:46;16.00;77.00
14877;DHT22;22152;48.158;17.118;2023-04-24T05:23:12;16.10;76.20
14877;DHT22;22152;48.158;17.118;2023-04-24T05:25:40;16.20;75.90
14877;DHT22;22152;48.158;17.118;2023-04-24T05:28:10;16.30;74.80
14877;DHT22;22152;48.158;17.118;2023-04-24T05:30:36;16.40;73.90
14877;DHT22;22152;48.158;17.118;2023-04-24T05:33:02;16.50;73.50
14877;DHT22;22152;48.158;17.118;2023-04-24T05:35:29;16.60;73.70
14877;DHT22;22152;48.158;17.118;2023-04-24T05:37:55;16.70;73.00
14877;DHT22;22152;48.158;17.118;2023-04-24T05:40:21;16.80;72.20
14877;DHT22;22152;48.158;17.118;2023-04-24T05:42:47;17.00;71.10
14877;DHT22;22152;48.158;17.118;2023-04-24T05:45:13;17.20;70.40
14877;DHT22;22152;48.158;17.118;2023-04-24T05:47:43;17.40;68.30
14877;DHT22;22152;48.158;17.118;2023-04-24T05:50:10;17.50;65.90
14877;DHT22;22152;48.158;17.118;2023-04-24T05:52:37;17.60;65.90
14877;DHT22;22152;48.158;17.118;2023-04-24T05:55:08;17.70;66.60
14877;DHT22;22152;48.158;17.118;2023-04-24T05:57:37;17.70;64.80
14877;DHT22;22152;48.158;17.118;2023-04-24T06:00:04;17.70;64.70
14877;DHT22;22152;48.158;17.118;2023-04-24T06:02:39;17.70;64.50
14877;DHT22;22152;48.158;17.118;2023-04-24T06:05:07;17.70;64.20
14877;DHT22;22152;48.158;17.118;2023-04-24T06:07:34;17.60;64.20
14877;DHT22;22152;48.158;17.118;2023-04-24T06:10:03;17.70;64.80
14877;DHT22;22152;48.158;17.118;2023-04-24T06:12:36;17.80;64.90
14877;DHT22;22152;48.158;17.118;2023-04-24T06:15:07;18.00;64.40
14877;DHT22;22152;48.158;17.118;2023-04-24T06:17:48;18.40;64.10
14877;DHT22;22152;48.158;17.118;2023-04-24T06:20:16;18.90;62.80
14877;DHT22;22152;48.158;17.118;2023-04-24T06:22:42;19.30;61.30
14877;DHT22;22152;48.158;17.118;2023-04-24T06:25:09;19.50;59.80
14877;DHT22;22152;48.158;17.118;2023-04-24T06:27:35;19.60;59.60
14877;DHT22;22152;48.158;17.118;2023-04-24T06:30:01;19.70;59.40
14877;DHT22;22152;48.158;17.118;2023-04-24T06:32:27;19.70;59.10
14877;DHT22;22152;48.158;17.118;2023-04-24T06:34:53;19.70;59.20
14877;DHT22;22152;48.158;17.118;2023-04-24T06:37:23;19.70;59.20
14877;DHT22;22152;48.158;17.118;2023-04-24T06:39:48;19.90;58.90
14877;DHT22;22152;48.158;17.118;2023-04-24T06:42:14;19.80;58.50
14877;DHT22;22152;48.158;17.118;2023-04-24T06:44:43;19.80;58.70
14877;DHT22;22152;48.158;17.118;2023-04-24T06:47:10;19.90;58.50
14877;DHT22;22152;48.158;17.118;2023-04-24T06:49:36;19.90;58.20
14877;DHT22;22152;48.158;17.118;2023-04-24T06:52:03;19.90;58.10
14877;DHT22;22152;48.158;17.118;2023-04-24T06:54:30;19.90;58.30
14877;DHT22;22152;48.158;17.118;2023-04-24T06:56:56;20.00;58.10
14877;DHT22;22152;48.158;17.118;2023-04-24T06:59:26;20.10;57.90
14877;DHT22;22152;48.158;17.118;2023-04-24T07:01:53;20.20;57.70
14877;DHT22;22152;48.158;17.118;2023-04-24T07:04:20;20.40;57.30
14877;DHT22;22152;48.158;17.118;2023-04-24T07:06:47;20.50;57.00
14877;DHT22;22152;48.158;17.118;2023-04-24T07:09:14;20.60;56.60
14877;DHT22;22152;48.158;17.118;2023-04-24T07:11:45;20.80;56.30
14877;DHT22;22152;48.158;17.118;2023-04-24T07:14:11;20.80;56.00
14877;DHT22;22152;48.158;17.118;2023-04-24T07:16:37;20.90;56.00
14877;DHT22;22152;48.158;17.118;2023-04-24T07:19:03;21.00;55.80
14877;DHT22;22152;48.158;17.118;2023-04-24T07:21:29;21.10;55.70
14877;DHT22;22152;48.158;17.118;2023-04-24T07:23:58;21.30;55.30
14877;DHT22;22152;48.158;17.118;2023-04-24T07:26:24;21.50;55.10
14877;DHT22;22152;48.158;17.118;2023-04-24T07:28:51;21.70;54.80
14877;DHT22;22152;48.158;17.118;2023-04-24T07:31:17;22.10;54.40
14877;DHT22;22152;48.158;17.118;2023-04-24T07:33:43;22.30;54.10
14877;DHT22;22152;48.158;17.118;2023-04-24T07:36:08;22.50;53.80
14877;DHT22;22152;48.158;17.118;2023-04-24T07:38:44;22.60;53.40
14877;DHT22;22152;48.158;17.118;2023-04-24T07:41:11;22.70;53.10
14877;DHT22;22152;48.158;17.118;2023-04-24T07:43:37;22.80;52.80
14877;DHT22;22152;48.158;17.118;2023-04-24T07:46:03;22.90;52.70
14877;DHT22;22152;48.158;17.118;2023-04-24T07:48:29;22.80;52.60
14877;DHT22;22152;48.158;17.118;2023-04-24T07:50:55;22.50;52.00
14877;DHT22;22152;48.158;17.118;2023-04-24T07:53:21;22.30;52.50
14877;DHT22;22152;48.158;17.118;2023-04-24T07:55:47;22.10;53.00
14877;DHT22;22152;48.158;17.118;2023-04-24T07:58:13;22.20;53.00
14877;DHT22;22152;48.158;17.118;2023-04-24T08:00:41;22.20;52.80
14877;DHT22;22152;48.158;17.118;2023-04-24T08:03:07;22.30;52.70
14877;DHT22;22152;48.158;17.118;2023-04-24T08:05:33;22.20;52.80
14877;DHT22;22152;48.158;17.118;2023-04-24T08:07:59;22.10;52.80
14877;DHT22;22152;48.158;17.118;2023-04-24T08:10:25;21.90;53.00
14877;DHT22;22152;48.158;17.118;2023-04-24T08:12:51;21.70;53.50
14877;DHT22;22152;48.158;17.118;2023-04-24T08:15:17;21.60;53.70
14877;DHT22;22152;48.158;17.118;2023-04-24T08:17:44;21.70;53.90
14877;DHT22;22152;48.158;17.118;2023-04-24T08:20:11;21.90;54.00
14877;DHT22;22152;48.158;17.118;2023-04-24T08:22:41;22.10;53.30
14877;DHT22;22152;48.158;17.118;2023-04-24T08:25:09;22.40;53.00
14877;DHT22;22152;48.158;17.118;2023-04-24T08:27:36;22.60;52.40
14877;DHT22;22152;48.158;17.118;2023-04-24T08:30:03;22.70;52.00
14877;DHT22;22152;48.158;17.118;2023-04-24T08:33:03;22.60;52.10
14877;DHT22;22152;48.158;17.118;2023-04-24T08:35:29;22.40;52.10
14877;DHT22;22152;48.158;17.118;2023-04-24T08:37:55;22.00;52.40
14877;DHT22;22152;48.158;17.118;2023-04-24T08:40:27;21.90;52.90
14877;DHT22;22152;48.158;17.118;2023-04-24T08:42:59;21.90;53.00
14877;DHT22;22152;48.158;17.118;2023-04-24T08:45:28;21.80;53.20
14877;DHT22;22152;48.158;17.118;2023-04-24T08:47:55;21.90;53.10
14877;DHT22;22152;48.158;17.118;2023-04-24T08:50:25;22.00;52.90
14877;DHT22;22152;48.158;17.118;2023-04-24T08:52:52;22.00;53.00
14877;DHT22;22152;48.158;17.118;2023-04-24T08:55:20;21.90;53.60
14877;DHT22;22152;48.158;17.118;2023-04-24T08:57:51;21.70;53.10
14877;DHT22;22152;48.158;17.118;2023-04-24T09:00:20;21.40;53.60
14877;DHT22;22152;48.158;17.118;2023-04-24T09:02:49;21.10;54.00
14877;DHT22;22152;48.158;17.118;2023-04-24T09:05:21;20.70;54.30
14877;DHT22;22152;48.158;17.118;2023-04-24T09:07:55;20.30;54.80
14877;DHT22;22152;48.158;17.118;2023-04-24T09:10:23;20.00;55.10
14877;DHT22;22152;48.158;17.118;2023-04-24T09:12:51;19.70;55.70
14877;DHT22;22152;48.158;17.118;2023-04-24T09:15:19;19.40;56.20
14877;DHT22;22152;48.158;17.118;2023-04-24T09:17:46;19.30;56.40
14877;DHT22;22152;48.158;17.118;2023-04-24T09:20:12;19.30;56.60
14877;DHT22;22152;48.158;17.118;2023-04-24T09:22:38;19.20;56.70
14877;DHT22;22152;48.158;17.118;2023-04-24T09:25:06;19.00;56.80
14877;DHT22;22152;48.158;17.118;2023-04-24T09:27:34;19.00;57.00
14877;DHT22;22152;48.158;17.118;2023-04-24T09:30:01;19.00;57.20
14877;DHT22;22152;48.158;17.118;2023-04-24T09:32:28;19.00;57.60
14877;DHT22;22152;48.158;17.118;2023-04-24T09:35:15;19.00;57.70
14877;DHT22;22152;48.158;17.118;2023-04-24T09:37:43;18.90;58.00
14877;DHT22;22152;48.158;17.118;2023-04-24T09:43:05;18.80;58.60
14877;DHT22;22152;48.158;17.118;2023-04-24T09:45:38;18.80;58.60
14877;DHT22;22152;48.158;17.118;2023-04-24T09:48:07;18.60;58.80
14877;DHT22;22152;48.158;17.118;2023-04-24T09:50:35;18.50;59.00
14877;DHT22;22152;48.158;17.118;2023-04-24T09:53:05;18.40;59.10
14877;DHT22;22152;48.158;17.118;2023-04-24T09:55:42;18.40;59.50
14877;DHT22;22152;48.158;17.118;2023-04-24T09:58:10;18.20;59.50
14877;DHT22;22152;48.158;17.118;2023-04-24T10:00:36;18.20;59.70
14877;DHT22;22152;48.158;17.118;2023-04-24T10:03:03;18.20;59.80
14877;DHT22;22152;48.158;17.118;2023-04-24T10:05:35;18.20;59.90
14877;DHT22;22152;48.158;17.118;2023-04-24T10:08:03;18.30;61.30
14877;DHT22;22152;48.158;17.118;2023-04-24T10:10:35;18.30;60.80
14877;DHT22;22152;48.158;17.118;2023-04-24T10:13:04;18.10;61.10
14877;DHT22;22152;48.158;17.118;2023-04-24T10:15:30;18.10;61.40
14877;DHT22;22152;48.158;17.118;2023-04-24T10:18:00;18.10;62.30
14877;DHT22;22152;48.158;17.118;2023-04-24T10:20:28;17.90;63.40
14877;DHT22;22152;48.158;17.118;2023-04-24T10:22:57;17.80;64.40
14877;DHT22;22152;48.158;17.118;2023-04-24T10:25:26;17.80;65.00
14877;DHT22;22152;48.158;17.118;2023-04-24T10:27:54;17.60;66.10
14877;DHT22;22152;48.158;17.118;2023-04-24T10:30:24;17.60;67.20
14877;DHT22;22152;48.158;17.118;2023-04-24T10:32:52;17.60;67.80
14877;DHT22;22152;48.158;17.118;2023-04-24T10:35:18;17.60;67.60
14877;DHT22;22152;48.158;17.118;2023-04-24T10:37:56;17.50;68.10
14877;DHT22;22152;48.158;17.118;2023-04-24T10:40:30;17.50;68.40
14877;DHT22;22152;48.158;17.118;2023-04-24T10:42:59;17.50;70.50
14877;DHT22;22152;48.158;17.118;2023-04-24T10:45:34;17.50;70.10
14877;DHT22;22152;48.158;17.118;2023-04-24T10:48:08;17.50;70.20
14877;DHT22;22152;48.158;17.118;2023-04-24T10:50:47;17.50;70.70
14877;DHT22;22152;48.158;17.118;2023-04-24T10:53:21;17.70;69.60
14877;DHT22;22152;48.158;17.118;2023-04-24T10:55:58;17.80;67.90
14877;DHT22;22152;48.158;17.118;2023-04-24T10:58:50;17.90;66.60
14877;DHT22;22152;48.158;17.118;2023-04-24T11:01:29;17.80;66.60
14877;DHT22;22152;48.158;17.118;2023-04-24T11:03:58;17.90;66.70
14877;DHT22;22152;48.158;17.118;2023-04-24T11:06:36;18.00;66.70
14877;DHT22;22152;48.158;17.118;2023-04-24T11:09:06;18.10;66.80
14877;DHT22;22152;48.158;17.118;2023-04-24T11:11:34;18.10;67.10
14877;DHT22;22152;48.158;17.118;2023-04-24T11:14:04;18.10;66.70
14877;DHT22;22152;48.158;17.118;2023-04-24T11:22:01;18.10;67.50
14877;DHT22;22152;48.158;17.118;2023-04-24T11:27:17;17.90;67.80
14877;DHT22;22152;48.158;17.118;2023-04-24T11:29:51;17.80;69.00
14877;DHT22;22152;48.158;17.118;2023-04-24T11:32:40;17.80;69.50
14877;DHT22;22152;48.158;17.118;2023-04-24T11:35:21;18.00;70.70
14877;DHT22;22152;48.158;17.118;2023-04-24T11:37:52;18.10;71.20
14877;DHT22;22152;48.158;17.118;2023-04-24T11:40:20;18.20;72.80
14877;DHT22;22152;48.158;17.118;2023-04-24T11:42:50;18.40;73.20
14877;DHT22;22152;48.158;17.118;2023-04-24T11:45:23;18.70;71.90
14877;DHT22;22152;48.158;17.118;2023-04-24T11:47:51;18.70;72.70
14877;DHT22;22152;48.158;17.118;2023-04-24T11:50:21;18.90;72.70
14877;DHT22;22152;48.158;17.118;2023-04-24T11:52:49;19.10;72.50
14877;DHT22;22152;48.158;17.118;2023-04-24T12:00:38;20.00;70.50
14877;DHT22;22152;48.158;17.118;2023-04-24T12:03:07;20.30;68.90
14877;DHT22;22152;48.158;17.118;2023-04-24T12:05:35;20.70;66.80
14877;DHT22;22152;48.158;17.118;2023-04-24T12:08:01;21.00;66.10
14877;DHT22;22152;48.158;17.118;2023-04-24T12:10:28;20.90;64.90
14877;DHT22;22152;48.158;17.118;2023-04-24T12:12:56;20.80;65.00
14877;DHT22;22152;48.158;17.118;2023-04-24T12:15:24;20.80;62.70
14877;DHT22;22152;48.158;17.118;2023-04-24T12:17:51;20.90;62.40
14877;DHT22;22152;48.158;17.118;2023-04-24T12:20:30;20.80;62.30
14877;DHT22;22152;48.158;17.118;2023-04-24T12:22:58;20.40;62.50
14877;DHT22;22152;48.158;17.118;2023-04-24T12:25:27;19.90;63.10
14877;DHT22;22152;48.158;17.118;2023-04-24T12:30:30;18.90;66.70
14877;DHT22;22152;48.158;17.118;2023-04-24T12:32:59;18.50;67.80
14877;DHT22;22152;48.158;17.118;2023-04-24T12:35:27;18.40;69.40
14877;DHT22;22152;48.158;17.118;2023-04-24T12:37:54;18.40;70.50
14877;DHT22;22152;48.158;17.118;2023-04-24T12:40:21;18.60;70.60
14877;DHT22;22152;48.158;17.118;2023-04-24T12:42:49;19.10;69.80
14877;DHT22;22152;48.158;17.118;2023-04-24T12:45:17;19.30;68.60
14877;DHT22;22152;48.158;17.118;2023-04-24T12:47:45;19.40;66.60
14877;DHT22;22152;48.158;17.118;2023-04-24T12:50:13;19.50;67.10
14877;DHT22;22152;48.158;17.118;2023-04-24T12:52:41;19.50;66.30
14877;DHT22;22152;48.158;17.118;2023-04-24T12:55:17;19.50;65.50
14877;DHT22;22152;48.158;17.118;2023-04-24T12:58:03;19.40;65.40
14877;DHT22;22152;48.158;17.118;2023-04-24T13:00:31;19.30;64.40
14877;DHT22;22152;48.158;17.118;2023-04-24T13:03:13;19.10;64.60
14877;DHT22;22152;48.158;17.118;2023-04-24T13:05:39;18.90;65.10
14877;DHT22;22152;48.158;17.118;2023-04-24T13:08:05;18.70;65.10
14877;DHT22;22152;48.158;17.118;2023-04-24T13:10:31;18.60;65.70
14877;DHT22;22152;48.158;17.118;2023-04-24T13:12:57;18.40;65.80
14877;DHT22;22152;48.158;17.118;2023-04-24T13:15:23;18.40;66.90
14877;DHT22;22152;48.158;17.118;2023-04-24T13:17:50;18.20;67.20
14877;DHT22;22152;48.158;17.118;2023-04-24T13:20:16;18.10;68.20
14877;DHT22;22152;48.158;17.118;2023-04-24T13:22:41;18.20;68.40
14877;DHT22;22152;48.158;17.118;2023-04-24T13:25:07;18.20;68.50
14877;DHT22;22152;48.158;17.118;2023-04-24T13:27:34;18.20;68.50
14877;DHT22;22152;48.158;17.118;2023-04-24T13:30:00;18.20;68.00
14877;DHT22;22152;48.158;17.118;2023-04-24T13:32:26;18.20;68.20
14877;DHT22;22152;48.158;17.118;2023-04-24T13:34:53;18.20;69.50
14877;DHT22;22152;48.158;17.118;2023-04-24T13:37:18;18.10;68.70
14877;DHT22;22152;48.158;17.118;2023-04-24T13:39:44;17.90;69.20
14877;DHT22;22152;48.158;17.118;2023-04-24T13:42:10;17.70;70.20
14877;DHT22;22152;48.158;17.118;2023-04-24T13:44:36;17.70;70.80
14877;DHT22;22152;48.158;17.118;2023-04-24T13:47:02;17.70;70.40
14877;DHT22;22152;48.158;17.118;2023-04-24T13:49:28;17.70;70.70
14877;DHT22;22152;48.158;17.118;2023-04-24T13:51:54;17.70;70.30
14877;DHT22;22152;48.158;17.118;2023-04-24T13:54:21;17.80;70.10
14877;DHT22;22152;48.158;17.118;2023-04-24T13:56:49;17.80;69.60
14877;DHT22;22152;48.158;17.118;2023-04-24T13:59:15;17.80;69.60
14877;DHT22;22152;48.158;17.118;2023-04-24T14:01:41;17.80;69.80
14877;DHT22;22152;48.158;17.118;2023-04-24T14:04:06;17.90;69.20
14877;DHT22;22152;48.158;17.118;2023-04-24T14:06:32;18.10;68.90
14877;DHT22;22152;48.158;17.118;2023-04-24T14:08:58;18.20;68.20
14877;DHT22;22152;48.158;17.118;2023-04-24T14:11:24;18.30;66.70
14877;DHT22;22152;48.158;17.118;2023-04-24T14:13:51;18.30;66.30
14877;DHT22;22152;48.158;17.118;2023-04-24T14:16:17;18.30;65.20
14877;DHT22;22152;48.158;17.118;2023-04-24T14:18:43;18.30;64.50
14877;DHT22;22152;48.158;17.118;2023-04-24T14:21:08;18.20;64.00
14877;DHT22;22152;48.158;17.118;2023-04-24T14:23:34;18.00;64.10
14877;DHT22;22152;48.158;17.118;2023-04-24T14:26:00;17.90;65.50
14877;DHT22;22152;48.158;17.118;2023-04-24T14:28:26;17.90;65.50
14877;DHT22;22152;48.158;17.118;2023-04-24T14:30:53;17.90;64.40
14877;DHT22;22152;48.158;17.118;2023-04-24T14:33:19;17.80;64.60
14877;DHT22;22152;48.158;17.118;2023-04-24T14:35:45;17.60;64.00
14877;DHT22;22152;48.158;17.118;2023-04-24T14:38:11;17.50;63.90
14877;DHT22;22152;48.158;17.118;2023-04-24T14:40:38;17.30;64.20
14877;DHT22;22152;48.158;17.118;2023-04-24T14:43:04;17.30;64.40
14877;DHT22;22152;48.158;17.118;2023-04-24T14:45:30;17.40;64.30
14877;DHT22;22152;48.158;17.118;2023-04-24T14:47:56;17.40;64.50
14877;DHT22;22152;48.158;17.118;2023-04-24T14:50:23;17.50;65.00
14877;DHT22;22152;48.158;17.118;2023-04-24T14:52:49;17.50;64.90
14877;DHT22;22152;48.158;17.118;2023-04-24T14:55:15;17.50;64.50
14877;DHT22;22152;48.158;17.118;2023-04-24T14:57:42;17.30;65.00
14877;DHT22;22152;48.158;17.118;2023-04-24T15:00:08;17.30;65.10
14877;DHT22;22152;48.158;17.118;2023-04-24T15:02:36;17.20;64.70
14877;DHT22;22152;48.158;17.118;2023-04-24T15:05:06;17.20;64.80
14877;DHT22;22152;48.158;17.118;2023-04-24T15:07:32;17.10;64.80
14877;DHT22;22152;48.158;17.118;2023-04-24T15:09:58;17.00;65.30
14877;DHT22;22152;48.158;17.118;2023-04-24T15:12:24;16.90;66.00
14877;DHT22;22152;48.158;17.118;2023-04-24T15:14:50;16.90;66.20
14877;DHT22;22152;48.158;17.118;2023-04-24T15:17:16;16.90;66.70
14877;DHT22;22152;48.158;17.118;2023-04-24T15:19:42;17.00;66.30
14877;DHT22;22152;48.158;17.118;2023-04-24T15:22:08;17.00;66.60
14877;DHT22;22152;48.158;17.118;2023-04-24T15:24:35;17.00;67.40
14877;DHT22;22152;48.158;17.118;2023-04-24T15:27:00;17.00;67.30
14877;DHT22;22152;48.158;17.118;2023-04-24T15:29:27;17.00;68.20
14877;DHT22;22152;48.158;17.118;2023-04-24T15:31:53;16.90;69.20
14877;DHT22;22152;48.158;17.118;2023-04-24T15:34:19;16.80;70.20
14877;DHT22;22152;48.158;17.118;2023-04-24T15:36:45;16.80;70.30
14877;DHT22;22152;48.158;17.118;2023-04-24T15:39:11;16.80;70.00